This is the latest recevied weather packets stored in our database for station/object KD9YTS-13. If no packets are shown the sender has not sent any weather packets the latest 10 day(s).
| Time | Temp. | Humidity | Pressure | Rain* | Wind** | Luminosity | Snow |
|---|---|---|---|---|---|---|---|
| 1777750582 | -17.78° C | 100% | - | 0 mm | - | - | - |
| 1777748182 | -17.78° C | 100% | - | 0 mm | - | - | - |
| 1777746982 | 15.56° C | 3% | - | 0 mm | - | - | - |
| 1777744582 | -17.78° C | 100% | - | 0 mm | - | - | - |
| 1777743383 | -17.78° C | 100% | - | 0 mm | - | - | - |
| 1777742182 | -17.78° C | 100% | - | 0 mm | - | - | - |
| 1777740982 | 13.89° C | 3% | - | 0 mm | - | - | - |
| 1777739782 | -17.78° C | 100% | - | 0 mm | - | - | - |
| 1777738582 | -17.78° C | 100% | - | 0 mm | - | - | - |
| 1777737383 | -17.78° C | 100% | - | 0 mm | - | - | - |
| 1777736183 | -17.78° C | 100% | - | 0 mm | - | - | - |
| 1777734982 | -17.78° C | 100% | - | 0 mm | - | - | - |
| 1777733783 | -17.78° C | 100% | - | 0 mm | - | - | - |
| 1777732582 | -17.78° C | 100% | - | 0 mm | - | - | - |
| 1777731382 | -17.78° C | 100% | - | 0 mm | - | - | - |
| 1777730182 | 9.44° C | 4% | - | 0 mm | - | - | - |
| 1777728982 | 8.33° C | 5% | - | 0 mm | - | - | - |
| 1777727782 | -17.78° C | 100% | - | 0 mm | - | - | - |
| 1777726582 | -17.78° C | 100% | - | 0 mm | - | - | - |
| 1777725382 | -17.78° C | 100% | - | 0 mm | - | - | - |
| 1777724182 | 1.11° C | 9% | - | 0 mm | - | - | - |
| 1777723024 | -1.11° C | 9% | - | 0 mm | - | - | - |
| 1777722983 | -1.11° C | 9% | - | 0 mm | - | - | - |
| 1777721782 | -17.78° C | 100% | - | 0 mm | - | - | - |
| 1777720626 | -17.78° C | 100% | - | 0 mm | - | - | - |
* Rain latest hour (hover to see other rain measurements)
** Current wind speed in m/s (hover to see current wind gust speed)